Time;durP1;ratioP1;P1;durP2;ratioP2;P2;SDS_P1;SDS_P2;PMS_P1;PMS_P2;Temp;Humidity;BMP_temperature;BMP_pressure;BME280_temperature;BME280_humidity;BME280_pressure;Samples;Min_cycle;Max_cycle;Signal;HPM_P1;HPM_P2
2020/12/27 06:39:59;;;;;;;9.07;4.00;;;-2.50;99.90;;;;;;6246806;22;20004;-93
2020/12/27 06:42:30;;;;;;;8.03;4.17;;;-2.50;99.90;;;;;;6169773;23;20035;-95
2020/12/27 06:44:56;;;;;;;9.23;4.27;;;-2.50;99.90;;;;;;6182051;23;20008;-95
2020/12/27 06:47:46;;;;;;;9.80;4.13;;;-2.40;99.90;;;;;;6182286;23;19994;-95
2020/12/27 06:50:20;;;;;;;9.23;4.67;;;-2.40;99.90;;;;;;6180985;23;19982;-96
2020/12/27 06:52:47;;;;;;;9.97;4.50;;;-2.40;99.90;;;;;;6182102;23;19993;-94
2020/12/27 06:55:35;;;;;;;9.43;4.80;;;-2.50;99.90;;;;;;6181942;23;19985;-95
2020/12/27 06:58:24;;;;;;;9.20;3.97;;;-2.40;99.90;;;;;;6181917;23;19990;-95
2020/12/27 07:01:09;;;;;;;9.40;4.47;;;-2.40;99.90;;;;;;6181625;23;19997;-95
2020/12/27 07:03:35;;;;;;;9.53;4.33;;;-2.50;99.90;;;;;;6176318;23;19990;-95
2020/12/27 07:06:19;;;;;;;8.63;4.13;;;-2.50;99.90;;;;;;6181559;23;19993;-95
2020/12/27 07:08:46;;;;;;;9.53;4.90;;;-2.50;99.90;;;;;;6181052;23;20021;-96
2020/12/27 07:11:20;;;;;;;9.43;4.37;;;-2.50;99.90;;;;;;6181012;23;19985;-95
2020/12/27 07:13:48;;;;;;;8.77;4.47;;;-2.40;99.90;;;;;;6181744;23;20001;-95
2020/12/27 07:16:16;;;;;;;9.40;4.27;;;-2.40;99.90;;;;;;6181617;23;20105;-95
2020/12/27 07:18:45;;;;;;;8.00;4.07;;;-2.40;99.90;;;;;;6180791;23;20016;-95
2020/12/27 07:21:19;;;;;;;9.07;4.30;;;-2.50;99.90;;;;;;6181575;23;19989;-95
2020/12/27 07:24:05;;;;;;;12.20;4.57;;;-2.50;99.90;;;;;;6180642;23;20049;-95
2020/12/27 07:26:32;;;;;;;8.67;4.70;;;-2.50;99.90;;;;;;6160457;23;20017;-95
2020/12/27 07:29:05;;;;;;;11.40;5.23;;;-2.50;99.90;;;;;;6179278;23;20005;-94
2020/12/27 07:31:35;;;;;;;9.17;4.33;;;-2.40;99.90;;;;;;6180149;23;19990;-95
2020/12/27 07:34:01;;;;;;;10.87;4.30;;;-2.30;99.90;;;;;;6180097;23;20004;-95
2020/12/27 07:36:27;;;;;;;8.67;4.30;;;-2.40;99.90;;;;;;6154990;23;19998;-96
2020/12/27 07:39:01;;;;;;;9.50;4.43;;;-2.40;99.90;;;;;;6179596;23;20041;-96
2020/12/27 07:41:40;;;;;;;10.07;4.27;;;-2.40;99.90;;;;;;6179444;23;20006;-96
2020/12/27 07:44:17;;;;;;;8.57;4.43;;;-2.40;99.90;;;;;;6179853;23;20073;-94
2020/12/27 07:46:44;;;;;;;9.53;3.87;;;-2.40;99.90;;;;;;6179704;23;19990;-96
2020/12/27 07:49:13;;;;;;;9.77;4.10;;;-2.40;99.90;;;;;;6174089;23;20071;-96
2020/12/27 07:51:40;;;;;;;10.03;4.63;;;-2.30;99.90;;;;;;6178042;23;20010;-95
2020/12/27 07:54:07;;;;;;;8.23;3.80;;;-2.20;99.90;;;;;;6173707;23;20009;-95
2020/12/27 07:56:34;;;;;;;8.83;4.13;;;-2.20;99.90;;;;;;6179773;23;20008;-95
2020/12/27 07:59:01;;;;;;;6.83;3.27;;;-2.20;99.90;;;;;;6179190;23;20008;-96
2020/12/27 08:01:28;;;;;;;8.97;4.27;;;-2.20;99.90;;;;;;6179778;23;19993;-95
2020/12/27 08:03:56;;;;;;;8.67;3.67;;;-2.20;99.90;;;;;;6179507;23;20013;-96
2020/12/27 08:06:23;;;;;;;8.37;4.33;;;-2.20;99.90;;;;;;6179654;23;20001;-95
2020/12/27 08:08:58;;;;;;;7.33;3.70;;;-2.10;99.90;;;;;;6179458;23;20006;-95
2020/12/27 08:11:25;;;;;;;8.70;4.17;;;-2.10;99.90;;;;;;6179347;23;20005;-96
2020/12/27 08:14:00;;;;;;;9.37;4.40;;;-2.10;99.90;;;;;;6180113;23;19990;-96
2020/12/27 10:38:51;;;;;;;6.73;3.27;;;0.10;99.90;;;;;;6179057;23;20115;-93
2020/12/27 10:41:16;;;;;;;7.50;3.87;;;0.10;99.90;;;;;;6183929;22;20012;-94
2020/12/27 11:40:40;;;;;;;10.10;5.17;;;0.50;99.90;;;;;;6180366;23;20057;-91
2020/12/27 11:43:05;;;;;;;12.93;5.50;;;0.50;99.90;;;;;;6182043;23;20021;-93
2020/12/27 11:45:31;;;;;;;9.40;5.17;;;0.50;99.90;;;;;;6176648;23;20091;-92
2020/12/27 11:47:57;;;;;;;11.30;6.57;;;0.50;99.90;;;;;;6177714;23;20065;-91
2020/12/27 11:50:23;;;;;;;12.33;6.37;;;0.50;99.90;;;;;;6182036;23;19993;-93
2020/12/27 11:52:48;;;;;;;12.77;6.07;;;0.60;99.90;;;;;;6180436;23;20009;-92
2020/12/27 11:55:14;;;;;;;10.30;5.90;;;0.60;99.90;;;;;;6181412;23;20009;-94
2020/12/27 11:57:40;;;;;;;9.17;5.70;;;0.60;99.90;;;;;;6181679;23;20013;-95
2020/12/27 12:00:06;;;;;;;9.23;5.80;;;0.50;99.90;;;;;;6183537;23;20003;-93
2020/12/27 12:02:32;;;;;;;13.43;6.00;;;0.60;99.90;;;;;;6179488;23;20001;-93
2020/12/27 12:04:57;;;;;;;11.80;6.43;;;0.60;99.90;;;;;;6184743;23;20060;-94
2020/12/27 12:07:23;;;;;;;11.50;6.40;;;0.60;99.90;;;;;;6184364;23;20048;-94
2020/12/27 12:09:49;;;;;;;11.43;5.87;;;0.70;99.90;;;;;;6183186;23;20008;-94
2020/12/27 12:12:15;;;;;;;10.63;5.70;;;0.60;99.90;;;;;;6184215;23;19997;-94
2020/12/27 12:14:41;;;;;;;12.07;6.23;;;0.70;99.90;;;;;;6182849;23;20017;-93
2020/12/27 12:17:14;;;;;;;9.07;5.63;;;0.70;99.90;;;;;;6183894;23;20064;-94
2020/12/27 12:23:04;;;;;;;11.17;5.33;;;0.80;99.90;;;;;;6200701;23;20040;-93
2020/12/27 12:25:30;;;;;;;10.10;5.30;;;0.70;99.90;;;;;;6184023;23;19997;-94
2020/12/27 12:27:55;;;;;;;11.37;5.47;;;0.80;99.90;;;;;;6182494;23;20000;-94
2020/12/27 12:30:21;;;;;;;9.47;4.47;;;0.80;99.90;;;;;;6183224;23;20004;-96
2020/12/27 12:32:47;;;;;;;9.50;5.27;;;0.80;99.90;;;;;;6184346;23;20084;-92
2020/12/27 12:35:13;;;;;;;8.77;4.83;;;0.90;99.90;;;;;;6183876;23;20020;-96
2020/12/27 12:37:38;;;;;;;8.20;4.57;;;0.90;99.90;;;;;;6184526;23;20001;-96
2020/12/27 14:34:00;;;;;;;7.43;3.07;;;1.20;99.90;;;;;;6151265;23;20022;-88
2020/12/27 14:36:26;;;;;;;7.90;3.13;;;1.20;99.90;;;;;;6154876;23;20037;-89
2020/12/27 14:38:55;;;;;;;7.03;3.40;;;1.20;99.90;;;;;;6157932;23;20016;-90
2020/12/27 14:41:20;;;;;;;5.20;2.70;;;1.20;99.90;;;;;;6156854;23;20009;-90
2020/12/27 14:43:47;;;;;;;7.63;3.10;;;1.20;99.90;;;;;;6157000;23;20497;-90
2020/12/27 14:46:12;;;;;;;6.97;3.30;;;1.20;99.90;;;;;;6154123;23;20028;-90
2020/12/27 14:48:41;;;;;;;8.77;3.63;;;1.20;99.90;;;;;;6155082;23;20084;-89
2020/12/27 14:51:07;;;;;;;16.70;7.90;;;1.20;99.90;;;;;;6155200;23;20012;-90
2020/12/27 14:53:33;;;;;;;7.40;3.50;;;1.20;99.90;;;;;;6154922;23;20005;-90
2020/12/27 14:55:59;;;;;;;7.60;3.77;;;1.20;99.90;;;;;;6154524;23;19998;-90
2020/12/27 14:58:26;;;;;;;16.83;8.40;;;1.20;99.90;;;;;;6155365;23;20036;-90
2020/12/27 15:00:52;;;;;;;6.97;3.60;;;1.20;99.90;;;;;;6156711;23;20044;-90
2020/12/27 15:03:26;;;;;;;7.93;3.37;;;1.20;99.90;;;;;;6155661;23;20013;-89
2020/12/27 15:05:56;;;;;;;8.87;3.20;;;1.20;99.90;;;;;;6154286;23;20005;-90
2020/12/27 15:08:24;;;;;;;5.90;2.83;;;1.20;99.90;;;;;;6155430;23;20707;-90
2020/12/27 15:10:50;;;;;;;5.63;2.53;;;1.20;99.90;;;;;;6155986;23;20084;-90
2020/12/27 15:13:16;;;;;;;6.87;2.83;;;1.30;99.90;;;;;;6154401;23;20425;-89
2020/12/27 15:15:42;;;;;;;5.87;2.60;;;1.30;99.90;;;;;;6155802;23;20001;-89
2020/12/27 15:18:10;;;;;;;6.00;2.80;;;1.20;99.90;;;;;;6155772;23;20037;-90
2020/12/27 15:20:36;;;;;;;4.90;2.50;;;1.30;99.90;;;;;;6126305;23;20025;-89
2020/12/27 15:23:02;;;;;;;5.30;2.30;;;1.30;99.90;;;;;;6153978;23;20005;-89
2020/12/27 15:25:29;;;;;;;7.33;3.07;;;1.30;99.90;;;;;;6153680;23;20005;-89
2020/12/27 15:28:01;;;;;;;4.80;2.10;;;1.30;99.90;;;;;;6152542;23;20045;-88
2020/12/27 15:30:28;;;;;;;5.03;2.33;;;1.30;99.90;;;;;;6152141;23;20005;-88
2020/12/27 15:32:54;;;;;;;5.43;2.50;;;1.30;99.90;;;;;;6151663;23;20005;-88
2020/12/27 15:35:26;;;;;;;4.77;2.00;;;1.30;99.90;;;;;;6151849;23;20458;-88
2020/12/27 15:37:52;;;;;;;7.53;2.13;;;1.40;99.90;;;;;;6153206;23;20092;-89
2020/12/27 15:40:19;;;;;;;5.30;2.80;;;1.40;99.90;;;;;;6153187;23;20014;-88
2020/12/27 15:42:47;;;;;;;6.17;2.70;;;1.40;99.90;;;;;;6154532;23;20061;-88
2020/12/27 15:45:15;;;;;;;6.37;2.80;;;1.40;99.90;;;;;;6174727;23;20029;-88
2020/12/27 15:47:41;;;;;;;5.80;2.43;;;1.50;99.90;;;;;;6172493;23;20468;-89
2020/12/27 15:50:07;;;;;;;6.80;2.70;;;1.40;99.90;;;;;;6153643;23;20084;-88
2020/12/27 15:52:33;;;;;;;5.00;2.73;;;1.50;99.90;;;;;;6153821;23;20076;-88
2020/12/27 15:55:00;;;;;;;5.77;2.30;;;1.40;99.90;;;;;;6153136;23;20001;-88
2020/12/27 15:57:26;;;;;;;5.80;2.57;;;1.40;99.90;;;;;;6158533;23;20083;-88
2020/12/27 15:59:51;;;;;;;5.40;2.10;;;1.40;99.90;;;;;;6156831;23;20008;-88
2020/12/27 16:02:19;;;;;;;4.87;2.43;;;1.40;99.90;;;;;;6156343;23;20009;-89
2020/12/27 16:04:45;;;;;;;4.90;2.30;;;1.40;99.90;;;;;;6156723;23;20376;-89
2020/12/27 16:07:12;;;;;;;5.73;2.50;;;1.40;99.90;;;;;;6156957;23;20035;-89
2020/12/27 16:09:37;;;;;;;7.03;3.20;;;1.40;99.90;;;;;;6156932;23;20033;-91
2020/12/27 16:12:03;;;;;;;8.07;2.50;;;1.50;99.90;;;;;;6157797;23;20004;-90
2020/12/27 16:14:28;;;;;;;6.07;2.50;;;1.50;99.90;;;;;;6177093;23;20021;-89
2020/12/27 16:16:54;;;;;;;5.13;2.40;;;1.50;99.90;;;;;;6167157;23;20347;-89
2020/12/27 16:19:20;;;;;;;5.77;2.93;;;1.50;99.90;;;;;;6157460;23;20016;-89
2020/12/27 16:21:49;;;;;;;6.20;2.70;;;1.50;99.90;;;;;;6156481;23;20013;-90
2020/12/27 16:24:15;;;;;;;7.20;2.60;;;1.40;99.90;;;;;;6157242;23;20027;-89
2020/12/27 16:26:44;;;;;;;6.53;2.87;;;1.50;99.90;;;;;;6157134;23;20012;-88
2020/12/27 16:29:10;;;;;;;7.20;3.00;;;1.50;99.90;;;;;;6155770;23;20001;-87
2020/12/27 16:31:38;;;;;;;5.60;2.90;;;1.50;99.90;;;;;;6157166;23;20008;-90
2020/12/27 16:34:04;;;;;;;5.77;2.63;;;1.50;99.90;;;;;;6156585;23;20016;-89
2020/12/27 16:36:31;;;;;;;5.50;2.50;;;1.50;99.90;;;;;;6155543;23;20005;-89
2020/12/27 16:38:57;;;;;;;5.47;2.80;;;1.50;99.90;;;;;;6156349;23;20043;-89
2020/12/27 16:41:25;;;;;;;5.13;2.40;;;1.50;99.90;;;;;;6156573;23;20013;-89
2020/12/27 16:43:55;;;;;;;5.50;2.77;;;1.50;99.90;;;;;;6155893;23;20008;-89
2020/12/27 16:46:24;;;;;;;6.50;2.73;;;1.50;99.90;;;;;;6156671;23;20017;-89
2020/12/27 16:48:52;;;;;;;6.37;3.00;;;1.50;99.90;;;;;;6155416;23;20325;-89
2020/12/27 16:51:19;;;;;;;6.33;3.03;;;1.50;99.90;;;;;;6157358;23;20012;-89
2020/12/27 16:53:47;;;;;;;6.27;3.00;;;1.60;99.90;;;;;;6157577;23;20008;-89
2020/12/27 16:56:12;;;;;;;6.33;2.90;;;1.60;99.90;;;;;;6157995;23;20005;-88
2020/12/27 16:58:39;;;;;;;6.47;3.37;;;1.60;99.90;;;;;;6156029;23;20015;-88
2020/12/27 17:01:10;;;;;;;7.47;2.93;;;1.60;99.90;;;;;;6153825;23;20558;-89
2020/12/27 17:03:45;;;;;;;6.67;3.03;;;1.60;99.90;;;;;;6164227;23;20009;-89
2020/12/27 17:06:12;;;;;;;5.77;2.60;;;1.70;99.90;;;;;;6162259;23;20013;-89
2020/12/27 17:08:37;;;;;;;5.47;2.50;;;1.70;99.90;;;;;;6156313;23;20356;-89
2020/12/27 17:11:03;;;;;;;6.33;3.20;;;1.60;99.90;;;;;;6156067;23;20001;-89
2020/12/27 17:13:28;;;;;;;7.23;2.47;;;1.70;99.90;;;;;;6155439;23;20009;-89
2020/12/27 17:15:55;;;;;;;5.20;2.23;;;1.70;99.90;;;;;;6155632;23;20044;-88
2020/12/27 17:18:24;;;;;;;4.77;2.30;;;1.70;99.90;;;;;;6155560;23;20005;-89
2020/12/27 17:20:49;;;;;;;8.40;2.80;;;1.70;99.90;;;;;;6155663;23;20102;-88
2020/12/27 17:23:18;;;;;;;7.90;2.17;;;1.70;99.90;;;;;;6155966;23;20431;-90
2020/12/27 17:25:43;;;;;;;5.33;2.40;;;1.70;99.90;;;;;;6156214;23;20005;-88
2020/12/27 17:28:09;;;;;;;11.23;4.23;;;1.80;99.90;;;;;;6155927;23;20013;-90
2020/12/27 17:30:35;;;;;;;6.07;2.57;;;1.90;99.90;;;;;;6156456;23;20072;-88
2020/12/27 17:33:01;;;;;;;7.60;2.70;;;1.90;99.90;;;;;;6157032;23;20005;-89
2020/12/27 17:35:26;;;;;;;10.43;4.10;;;1.90;99.90;;;;;;6157750;23;20056;-90
2020/12/27 17:37:52;;;;;;;7.17;3.00;;;2.00;99.90;;;;;;6157571;23;20432;-89
2020/12/27 17:40:18;;;;;;;8.20;4.00;;;2.00;99.90;;;;;;6157883;23;20052;-89
2020/12/27 17:42:44;;;;;;;8.77;3.73;;;2.00;99.90;;;;;;6157769;23;20005;-88
2020/12/27 17:45:09;;;;;;;4.93;2.13;;;2.10;99.90;;;;;;6157156;23;20459;-89
2020/12/27 17:47:35;;;;;;;5.43;1.87;;;2.20;99.90;;;;;;6157748;23;20424;-89
2020/12/27 17:50:01;;;;;;;5.37;1.87;;;2.20;99.90;;;;;;6157707;23;20005;-89
2020/12/27 17:52:27;;;;;;;7.20;2.13;;;2.30;99.90;;;;;;6157540;23;20005;-89
2020/12/27 17:54:52;;;;;;;4.43;2.20;;;2.40;99.80;;;;;;6157267;23;20005;-89
2020/12/27 17:57:18;;;;;;;4.70;1.93;;;2.40;99.90;;;;;;6159804;23;20008;-89
2020/12/27 17:59:43;;;;;;;6.07;2.40;;;2.50;99.50;;;;;;6160110;23;20072;-90
2020/12/27 18:02:10;;;;;;;6.97;2.30;;;2.50;99.20;;;;;;6156776;23;20356;-89
2020/12/27 18:04:39;;;;;;;4.07;1.87;;;2.50;99.20;;;;;;6187217;23;20005;-90
2020/12/27 18:07:06;;;;;;;3.83;1.30;;;2.60;98.80;;;;;;6159896;23;20036;-90
2020/12/27 18:09:32;;;;;;;4.13;1.73;;;2.60;98.80;;;;;;6159494;23;20009;-90
2020/12/27 18:11:58;;;;;;;3.80;1.50;;;2.70;98.30;;;;;;6160481;23;20447;-89
2020/12/27 18:14:23;;;;;;;5.67;2.13;;;2.60;98.70;;;;;;6160133;23;20499;-90
2020/12/27 18:16:49;;;;;;;3.70;1.50;;;2.70;98.00;;;;;;6159678;23;20027;-90
2020/12/27 18:19:15;;;;;;;5.07;1.60;;;2.80;97.90;;;;;;6159925;23;20012;-90
2020/12/27 18:21:41;;;;;;;4.13;1.80;;;2.80;97.50;;;;;;6185995;23;20001;-90
2020/12/27 18:24:07;;;;;;;4.57;1.70;;;2.90;98.00;;;;;;6159341;23;20005;-91
2020/12/27 18:26:34;;;;;;;3.63;1.33;;;2.90;97.50;;;;;;6160060;23;20012;-91
2020/12/27 18:28:59;;;;;;;4.33;1.63;;;3.00;97.20;;;;;;6211102;23;20096;-90
2020/12/27 18:31:25;;;;;;;5.77;1.63;;;3.00;96.70;;;;;;6162313;23;20000;-91
2020/12/27 18:33:51;;;;;;;3.27;1.53;;;3.00;96.90;;;;;;6161014;23;20023;-89
2020/12/27 18:36:17;;;;;;;7.37;1.70;;;3.10;97.30;;;;;;6160611;23;20032;-91
2020/12/27 18:38:42;;;;;;;3.97;1.50;;;3.10;97.20;;;;;;6161389;23;20009;-90
2020/12/27 18:41:09;;;;;;;7.37;2.00;;;3.10;97.30;;;;;;6160480;23;20009;-89
2020/12/27 18:43:36;;;;;;;3.83;1.47;;;3.10;97.80;;;;;;6161145;23;20088;-91
2020/12/27 18:46:05;;;;;;;3.63;1.80;;;3.10;97.20;;;;;;6160751;23;20009;-90
2020/12/27 18:48:32;;;;;;;4.40;1.40;;;3.20;98.10;;;;;;6160436;23;20017;-91
2020/12/27 18:50:58;;;;;;;3.67;1.50;;;3.10;97.30;;;;;;6160025;23;20005;-88
2020/12/27 18:53:24;;;;;;;3.50;1.40;;;3.30;96.70;;;;;;6161925;23;20029;-91
2020/12/27 18:55:52;;;;;;;3.03;1.30;;;3.30;96.70;;;;;;6162626;23;20001;-91
2020/12/27 18:58:18;;;;;;;3.43;1.50;;;3.30;96.70;;;;;;6161482;23;20182;-91
2020/12/27 19:00:43;;;;;;;4.33;1.50;;;3.40;97.50;;;;;;6161429;23;20589;-91
2020/12/27 19:03:10;;;;;;;3.83;1.30;;;3.40;97.50;;;;;;6160746;23;20092;-90
2020/12/27 19:05:39;;;;;;;3.63;1.30;;;3.50;96.80;;;;;;6166466;23;20020;-91
2020/12/27 19:08:06;;;;;;;4.10;1.80;;;3.50;97.20;;;;;;6160764;23;20016;-90
2020/12/27 19:10:32;;;;;;;4.27;1.50;;;3.50;96.90;;;;;;6161104;23;20005;-90
2020/12/27 19:12:58;;;;;;;3.83;1.47;;;3.60;96.90;;;;;;6161328;23;20344;-91
2020/12/27 19:15:32;;;;;;;4.20;1.77;;;3.60;96.70;;;;;;6160912;23;20005;-90
2020/12/27 19:18:01;;;;;;;6.17;1.70;;;3.60;97.10;;;;;;6159199;23;20650;-91
2020/12/27 19:20:27;;;;;;;4.20;1.73;;;3.60;97.80;;;;;;6161419;23;20013;-88
2020/12/27 19:22:52;;;;;;;6.00;2.23;;;3.50;97.80;;;;;;6159055;23;20009;-88
2020/12/27 19:25:18;;;;;;;3.93;1.60;;;3.50;98.30;;;;;;6158963;23;20334;-88
2020/12/27 19:27:45;;;;;;;5.47;1.67;;;3.50;98.50;;;;;;6186303;23;20084;-87
2020/12/27 19:30:11;;;;;;;4.47;1.80;;;3.50;98.80;;;;;;6157886;23;20001;-88
2020/12/27 19:32:37;;;;;;;5.63;2.60;;;3.50;99.10;;;;;;6187364;23;21193;-87
2020/12/27 19:35:03;;;;;;;4.30;1.63;;;3.60;99.40;;;;;;6159935;23;20012;-88
2020/12/27 19:37:29;;;;;;;5.30;1.67;;;3.60;99.00;;;;;;6185084;23;20007;-87
2020/12/27 19:39:55;;;;;;;7.80;2.00;;;3.60;99.00;;;;;;6157660;23;20432;-88
2020/12/27 19:42:21;;;;;;;3.50;1.37;;;3.60;99.40;;;;;;6158614;23;21185;-87
2020/12/27 19:44:46;;;;;;;4.93;1.40;;;3.70;99.90;;;;;;6160345;23;19997;-87
2020/12/27 19:47:12;;;;;;;6.77;1.40;;;3.70;99.70;;;;;;6160702;23;20005;-86
2020/12/27 19:49:37;;;;;;;3.90;1.70;;;3.70;98.80;;;;;;6203112;23;20001;-87
2020/12/27 19:52:03;;;;;;;5.93;1.77;;;3.80;98.70;;;;;;6158883;23;20005;-88
2020/12/27 19:54:29;;;;;;;3.70;1.30;;;3.80;98.80;;;;;;6157946;23;20005;-88
2020/12/27 19:56:58;;;;;;;3.93;1.80;;;3.80;98.10;;;;;;6158437;23;20009;-87
2020/12/27 19:59:24;;;;;;;3.40;1.40;;;3.90;97.80;;;;;;6158674;23;20004;-87
2020/12/27 20:01:58;;;;;;;4.13;1.57;;;4.00;97.90;;;;;;6158670;23;20001;-87
2020/12/27 20:04:24;;;;;;;5.00;1.60;;;3.90;98.30;;;;;;6157709;23;20352;-88
2020/12/27 20:06:50;;;;;;;4.43;1.43;;;3.90;99.00;;;;;;6158514;23;20068;-88
2020/12/27 20:09:17;;;;;;;3.60;1.43;;;3.90;98.70;;;;;;6158404;23;20009;-87
2020/12/27 20:11:43;;;;;;;3.20;1.33;;;3.90;98.20;;;;;;6158642;23;20001;-87
2020/12/27 20:14:09;;;;;;;3.57;1.50;;;4.00;98.40;;;;;;6185411;23;20392;-87
2020/12/27 20:16:34;;;;;;;4.83;1.50;;;3.90;98.50;;;;;;6158047;23;20031;-87
2020/12/27 20:19:00;;;;;;;3.97;1.43;;;4.00;98.00;;;;;;6183804;23;20489;-87
2020/12/27 20:21:26;;;;;;;3.37;1.00;;;4.00;98.00;;;;;;6158355;23;20024;-88
2020/12/27 20:23:52;;;;;;;4.13;1.30;;;4.10;98.00;;;;;;6158307;23;20005;-86
2020/12/27 20:26:19;;;;;;;5.20;1.53;;;4.10;98.60;;;;;;6158527;23;20005;-87
2020/12/27 20:28:45;;;;;;;3.60;1.20;;;4.20;99.60;;;;;;6157438;23;20025;-88
2020/12/27 20:31:12;;;;;;;5.23;1.30;;;4.20;99.80;;;;;;6159257;23;20102;-88
2020/12/27 20:33:38;;;;;;;3.17;1.20;;;4.30;99.50;;;;;;6157570;23;20456;-87
2020/12/27 20:36:11;;;;;;;3.63;1.20;;;4.40;99.90;;;;;;6158305;23;20353;-87
2020/12/27 20:38:37;;;;;;;3.83;1.23;;;4.40;99.90;;;;;;6159028;23;20538;-86
2020/12/27 20:41:03;;;;;;;3.53;1.10;;;4.40;99.90;;;;;;6160241;23;20005;-86
2020/12/27 20:43:29;;;;;;;3.23;1.30;;;4.50;99.90;;;;;;6157827;23;20013;-86
2020/12/27 20:45:54;;;;;;;3.23;1.10;;;4.50;99.90;;;;;;6158178;23;20019;-87
2020/12/27 20:48:20;;;;;;;4.33;1.57;;;4.40;99.90;;;;;;6157977;23;20013;-88
2020/12/27 20:50:46;;;;;;;2.90;1.00;;;4.40;99.90;;;;;;6156488;23;20016;-86
2020/12/27 20:53:12;;;;;;;3.77;1.27;;;4.50;99.90;;;;;;6156329;23;20433;-87
2020/12/27 20:55:37;;;;;;;2.30;0.93;;;4.50;99.90;;;;;;6157603;23;20001;-86
2020/12/27 20:58:03;;;;;;;3.00;1.00;;;4.40;99.90;;;;;;6157261;23;20044;-88
2020/12/27 21:00:29;;;;;;;3.23;1.10;;;4.40;99.90;;;;;;6157996;23;20094;-87
2020/12/27 21:02:54;;;;;;;4.17;1.13;;;4.30;99.90;;;;;;6156321;23;20008;-88
2020/12/27 21:05:20;;;;;;;2.37;0.90;;;4.30;99.90;;;;;;6156512;23;20005;-89
2020/12/27 21:07:45;;;;;;;3.00;1.00;;;4.30;99.90;;;;;;6157352;23;20371;-87
2020/12/27 21:10:11;;;;;;;3.63;1.30;;;4.40;99.90;;;;;;6157328;23;20012;-87
2020/12/27 21:12:37;;;;;;;2.30;1.00;;;4.30;99.90;;;;;;6157698;23;20001;-87
2020/12/27 21:15:05;;;;;;;2.93;1.00;;;4.30;99.90;;;;;;6157486;23;20051;-87
2020/12/27 21:17:30;;;;;;;3.20;1.17;;;4.20;99.90;;;;;;6153794;23;20013;-87
2020/12/27 21:19:56;;;;;;;3.17;0.90;;;4.20;99.90;;;;;;6156158;23;20009;-87
2020/12/27 22:24:30;;;;;;;0.60;0.30;;;5.70;99.90;;;;;;6176470;23;20009;-94
2020/12/27 22:26:56;;;;;;;1.43;0.63;;;5.70;99.90;;;;;;6184661;23;19985;-95
2020/12/27 22:29:58;;;;;;;;;;;;;;;;;;;;;
2020/12/27 22:32:37;;;;;;;2.67;0.45;;;5.70;99.90;;;;;;6229596;23;19985;-96
